Time;durP1;ratioP1;P1;durP2;ratioP2;P2;SDS_P1;SDS_P2;PMS_P1;PMS_P2;Temp;Humidity;BMP_temperature;BMP_pressure;BME280_temperature;BME280_humidity;BME280_pressure;Samples;Min_cycle;Max_cycle;Signal;HPM_P1;HPM_P2
2021/03/16 00:00:22;;;;;;;3.08;1.70;;;22.80;44.10;;;;;;5019183;28;20030;-62
2021/03/16 00:02:47;;;;;;;3.22;1.75;;;22.80;44.10;;;;;;5020542;28;20033;-62
2021/03/16 00:05:13;;;;;;;3.67;1.83;;;22.80;44.10;;;;;;5025180;28;20041;-63
2021/03/16 00:07:39;;;;;;;3.30;1.70;;;22.70;44.10;;;;;;5025035;28;20028;-63
2021/03/16 00:10:06;;;;;;;3.08;1.60;;;22.70;44.10;;;;;;5026128;28;20029;-66
2021/03/16 00:12:31;;;;;;;3.03;1.60;;;22.70;44.10;;;;;;5027314;28;20026;-62
2021/03/16 00:14:57;;;;;;;2.53;1.52;;;22.70;44.10;;;;;;5039647;28;20032;-64
2021/03/16 00:17:23;;;;;;;2.75;1.52;;;22.70;44.10;;;;;;5022570;28;20037;-63
2021/03/16 00:19:48;;;;;;;2.58;1.58;;;22.70;44.10;;;;;;5024749;28;20125;-63
2021/03/16 00:22:14;;;;;;;2.70;1.70;;;22.60;44.10;;;;;;5027158;28;20029;-64
2021/03/16 00:24:40;;;;;;;2.45;1.50;;;22.70;44.20;;;;;;5026704;28;20092;-64
2021/03/16 00:27:06;;;;;;;2.35;1.30;;;22.60;44.10;;;;;;5026021;28;20037;-62
2021/03/16 00:29:32;;;;;;;3.75;1.70;;;22.60;44.10;;;;;;5025965;28;20136;-62
2021/03/16 00:31:57;;;;;;;3.70;2.00;;;22.60;44.10;;;;;;5025368;28;20042;-64
2021/03/16 00:34:23;;;;;;;2.75;1.48;;;22.60;44.20;;;;;;5026749;28;20064;-62
2021/03/16 00:36:49;;;;;;;2.45;1.60;;;22.50;44.10;;;;;;5024300;28;20107;-65
2021/03/16 00:39:14;;;;;;;2.45;1.50;;;22.60;44.20;;;;;;5025829;28;20431;-64
2021/03/16 00:41:40;;;;;;;2.83;1.42;;;22.50;44.20;;;;;;5024225;28;20039;-62
2021/03/16 00:44:06;;;;;;;2.53;1.52;;;22.50;44.10;;;;;;5040278;28;20480;-63
2021/03/16 00:46:33;;;;;;;3.22;1.42;;;22.50;44.20;;;;;;5026588;28;20120;-62
2021/03/16 00:48:58;;;;;;;2.50;1.27;;;22.50;44.20;;;;;;5031163;28;20037;-63
2021/03/16 00:51:24;;;;;;;2.72;1.58;;;22.50;44.20;;;;;;5027225;28;20029;-63
2021/03/16 00:53:49;;;;;;;2.40;1.40;;;22.50;44.20;;;;;;5031230;28;20613;-65
2021/03/16 00:56:15;;;;;;;2.97;1.58;;;22.50;44.20;;;;;;5029489;28;20028;-62
2021/03/16 00:58:41;;;;;;;3.15;1.70;;;22.40;44.20;;;;;;5030894;28;20033;-62
2021/03/16 01:01:07;;;;;;;2.63;1.40;;;22.40;44.20;;;;;;5025002;28;20095;-62
2021/03/16 01:03:33;;;;;;;2.55;1.40;;;22.40;44.20;;;;;;5028645;28;20099;-62
2021/03/16 01:05:59;;;;;;;2.15;1.30;;;22.40;44.20;;;;;;5027859;28;20053;-62
2021/03/16 01:08:25;;;;;;;2.25;1.40;;;22.40;44.20;;;;;;5028606;28;20045;-63
2021/03/16 01:10:54;;;;;;;2.70;1.40;;;22.40;44.20;;;;;;5029846;28;20113;-63
2021/03/16 01:13:21;;;;;;;;;;;22.40;44.20;;;;;;5022213;28;20030;-64
2021/03/16 01:15:47;;;;;;;2.22;1.27;;;22.30;44.20;;;;;;5026793;28;19928;-62
2021/03/16 01:18:13;;;;;;;2.20;1.30;;;22.30;44.20;;;;;;5031393;28;20022;-63
2021/03/16 01:20:39;;;;;;;2.33;1.30;;;22.30;44.20;;;;;;5029438;28;20057;-62
2021/03/16 01:23:05;;;;;;;2.53;1.40;;;22.30;44.20;;;;;;5026515;28;20036;-63
2021/03/16 01:25:31;;;;;;;2.80;1.58;;;22.30;44.20;;;;;;5025520;28;20033;-63
2021/03/16 01:27:57;;;;;;;2.40;1.42;;;22.30;44.30;;;;;;5028320;28;20025;-63
2021/03/16 01:30:24;;;;;;;2.33;1.30;;;22.30;44.30;;;;;;5026819;28;20072;-64
2021/03/16 01:32:50;;;;;;;2.40;1.30;;;22.30;44.30;;;;;;5028019;28;20029;-65
2021/03/16 01:35:16;;;;;;;2.58;1.40;;;22.20;44.20;;;;;;5027575;28;20489;-65
2021/03/16 01:37:45;;;;;;;2.88;1.27;;;22.30;44.30;;;;;;5026791;28;20065;-62
2021/03/16 01:40:14;;;;;;;2.28;1.40;;;22.20;44.20;;;;;;5029834;28;20032;-64
2021/03/16 01:42:40;;;;;;;2.47;1.33;;;22.20;44.20;;;;;;5029449;28;20025;-63
2021/03/16 01:45:17;;;;;;;2.95;1.40;;;22.20;44.20;;;;;;5028910;28;20065;-65
2021/03/16 01:47:50;;;;;;;2.47;1.25;;;22.20;44.30;;;;;;5028974;28;20125;-62
2021/03/16 01:50:20;;;;;;;2.55;1.23;;;22.20;44.20;;;;;;5027086;28;20036;-62
2021/03/16 01:52:47;;;;;;;2.25;1.40;;;22.20;44.20;;;;;;5043228;28;20021;-62
2021/03/16 01:55:14;;;;;;;2.95;1.58;;;22.20;44.30;;;;;;5028783;28;20029;-62
2021/03/16 01:57:41;;;;;;;2.08;1.15;;;22.20;44.30;;;;;;5026542;28;20150;-63
2021/03/16 02:00:07;;;;;;;2.30;1.40;;;22.20;44.30;;;;;;5028744;28;20521;-63
2021/03/16 02:02:35;;;;;;;2.65;1.45;;;22.10;44.20;;;;;;5029233;28;20052;-62
2021/03/16 02:05:01;;;;;;;2.42;1.25;;;22.10;44.20;;;;;;5028421;28;20034;-62
2021/03/16 02:07:34;;;;;;;2.05;1.30;;;22.10;44.20;;;;;;5027247;28;20095;-63
2021/03/16 02:10:17;;;;;;;2.67;1.30;;;22.10;44.30;;;;;;5028476;28;20468;-64
2021/03/16 02:13:07;;;;;;;2.17;1.30;;;22.10;44.20;;;;;;5028008;28;20030;-63
2021/03/16 02:15:37;;;;;;;2.25;1.15;;;22.10;44.30;;;;;;5028168;28;20075;-62
2021/03/16 02:18:14;;;;;;;1.85;1.10;;;22.10;44.40;;;;;;5025399;28;20026;-63
2021/03/16 02:20:42;;;;;;;2.08;1.20;;;22.10;44.30;;;;;;5027941;28;20457;-62
2021/03/16 02:23:14;;;;;;;1.48;0.90;;;22.10;44.30;;;;;;5028463;28;20017;-64
2021/03/16 02:25:57;;;;;;;2.33;1.30;;;22.00;44.30;;;;;;5023840;28;20037;-65
2021/03/16 02:28:50;;;;;;;1.88;1.10;;;22.10;44.30;;;;;;5029724;28;20029;-65
2021/03/16 02:31:17;;;;;;;1.75;1.08;;;22.00;44.20;;;;;;5020379;28;20030;-63
2021/03/16 02:33:43;;;;;;;1.77;1.17;;;22.00;44.30;;;;;;5028045;28;20049;-62
2021/03/16 02:36:12;;;;;;;1.80;1.05;;;22.00;44.30;;;;;;5028553;28;20060;-63
2021/03/16 02:38:45;;;;;;;2.05;1.20;;;22.00;44.30;;;;;;5025048;28;20036;-63
2021/03/16 02:41:15;;;;;;;1.73;1.08;;;22.00;44.30;;;;;;5026976;28;20504;-63
2021/03/16 02:43:41;;;;;;;2.10;1.10;;;22.00;44.30;;;;;;5027063;28;20113;-62
2021/03/16 02:46:08;;;;;;;1.40;1.00;;;22.00;44.30;;;;;;5027418;28;20133;-62
2021/03/16 02:48:35;;;;;;;2.13;1.30;;;22.00;44.30;;;;;;5024251;28;20143;-63
2021/03/16 02:51:01;;;;;;;2.05;1.20;;;22.00;44.30;;;;;;5008445;28;20029;-63
2021/03/16 02:53:27;;;;;;;1.90;1.00;;;21.90;44.30;;;;;;5027064;28;20022;-61
2021/03/16 02:55:55;;;;;;;2.08;1.13;;;21.90;44.30;;;;;;5025425;28;20404;-62
2021/03/16 02:58:23;;;;;;;2.58;1.20;;;21.90;44.30;;;;;;5026046;28;20179;-64
2021/03/16 03:00:50;;;;;;;3.53;1.40;;;21.90;44.30;;;;;;5023919;28;20128;-63
2021/03/16 03:03:18;;;;;;;2.22;1.10;;;21.90;44.30;;;;;;5026663;28;20199;-64
2021/03/16 03:05:46;;;;;;;2.30;1.10;;;21.90;44.30;;;;;;5027601;28;20071;-63
2021/03/16 03:08:12;;;;;;;1.73;1.10;;;21.80;44.30;;;;;;5025304;28;20149;-63
2021/03/16 03:10:37;;;;;;;1.63;1.02;;;21.90;44.30;;;;;;5036714;28;20053;-66
2021/03/16 03:13:04;;;;;;;1.88;1.00;;;21.90;44.40;;;;;;5032736;28;20404;-62
2021/03/16 03:15:30;;;;;;;1.90;1.20;;;21.90;44.40;;;;;;5020767;28;20087;-62
2021/03/16 03:17:57;;;;;;;1.83;1.10;;;21.90;44.40;;;;;;5027374;28;20033;-62
2021/03/16 03:20:36;;;;;;;2.40;1.10;;;21.80;44.40;;;;;;5027056;28;20030;-64
2021/03/16 03:23:13;;;;;;;1.45;0.95;;;21.80;44.40;;;;;;5027031;28;20040;-63
2021/03/16 03:25:41;;;;;;;1.83;1.00;;;21.80;44.40;;;;;;5024229;28;20040;-66
2021/03/16 03:28:21;;;;;;;1.98;1.20;;;21.80;44.40;;;;;;5027347;28;20082;-63
2021/03/16 03:30:48;;;;;;;1.80;1.02;;;21.80;44.40;;;;;;5009557;28;20029;-64
2021/03/16 03:33:14;;;;;;;1.67;0.95;;;21.80;44.40;;;;;;5027604;28;20021;-63
2021/03/16 03:35:40;;;;;;;1.77;1.00;;;21.80;44.40;;;;;;5023522;28;20037;-64
2021/03/16 03:38:08;;;;;;;1.55;0.98;;;21.80;44.40;;;;;;5025018;28;20658;-62
2021/03/16 03:40:34;;;;;;;1.58;0.93;;;21.70;44.40;;;;;;5021154;28;20034;-63
2021/03/16 03:43:02;;;;;;;1.83;1.00;;;21.70;44.40;;;;;;5021464;28;20033;-63
2021/03/16 03:45:29;;;;;;;1.42;1.00;;;21.70;44.40;;;;;;5025625;28;20099;-62
2021/03/16 03:47:58;;;;;;;1.40;0.88;;;21.70;44.40;;;;;;5028069;28;20337;-63
2021/03/16 03:50:25;;;;;;;1.85;1.02;;;21.70;44.90;;;;;;5026506;28;20037;-63
2021/03/16 03:52:53;;;;;;;1.77;1.00;;;21.70;44.40;;;;;;5026525;28;20060;-62
2021/03/16 03:55:21;;;;;;;2.08;1.13;;;21.70;44.40;;;;;;5028001;28;20112;-65
2021/03/16 03:57:48;;;;;;;1.45;0.90;;;21.70;44.40;;;;;;5027898;28;20087;-62
2021/03/16 04:00:15;;;;;;;1.55;0.90;;;21.70;44.40;;;;;;5024752;28;20084;-63
2021/03/16 04:02:41;;;;;;;1.25;0.80;;;21.70;44.40;;;;;;5026641;28;20402;-62
2021/03/16 04:05:18;;;;;;;2.25;1.02;;;21.70;44.50;;;;;;5023844;28;20129;-62
2021/03/16 04:07:44;;;;;;;1.67;1.00;;;21.70;44.40;;;;;;5039599;28;20034;-63
2021/03/16 04:10:11;;;;;;;1.60;0.80;;;21.70;44.50;;;;;;5040432;28;20033;-62
2021/03/16 04:12:38;;;;;;;1.48;0.95;;;21.70;44.50;;;;;;5025514;28;20376;-63
2021/03/16 04:15:07;;;;;;;1.48;1.00;;;21.60;44.50;;;;;;5026667;28;20057;-63
2021/03/16 04:17:34;;;;;;;1.75;1.00;;;21.60;44.50;;;;;;5028517;28;20921;-64
2021/03/16 04:20:00;;;;;;;1.42;0.90;;;21.60;44.50;;;;;;5026443;28;20140;-62
2021/03/16 04:22:27;;;;;;;1.48;0.95;;;21.60;44.50;;;;;;5029384;28;20113;-62
2021/03/16 04:24:56;;;;;;;1.98;0.93;;;21.60;44.50;;;;;;5031181;28;20455;-62
2021/03/16 04:27:23;;;;;;;1.95;1.00;;;21.60;44.50;;;;;;5033104;28;20110;-62
2021/03/16 04:29:48;;;;;;;1.27;0.90;;;21.60;44.50;;;;;;5031031;28;20081;-63
2021/03/16 04:32:14;;;;;;;1.25;0.90;;;21.60;44.50;;;;;;5029895;28;20148;-63
2021/03/16 04:34:39;;;;;;;1.35;0.90;;;21.60;44.50;;;;;;5032043;28;20136;-63
2021/03/16 04:37:05;;;;;;;1.67;0.95;;;21.60;44.50;;;;;;5035056;28;20080;-63
2021/03/16 04:39:31;;;;;;;1.45;0.90;;;21.60;44.50;;;;;;5035508;28;20104;-63
2021/03/16 04:41:57;;;;;;;1.42;0.82;;;21.60;44.50;;;;;;5028313;28;20365;-62
2021/03/16 04:44:23;;;;;;;1.10;0.75;;;21.50;44.40;;;;;;5029769;28;20040;-64
2021/03/16 04:46:48;;;;;;;1.75;1.02;;;21.60;44.50;;;;;;5029176;28;20030;-64
2021/03/16 04:49:14;;;;;;;1.50;0.80;;;21.60;44.50;;;;;;5030330;28;20392;-64
2021/03/16 04:51:40;;;;;;;1.13;0.80;;;21.60;44.50;;;;;;5022922;28;20672;-64
2021/03/16 04:54:06;;;;;;;1.52;1.00;;;21.50;44.40;;;;;;5027429;28;20167;-62
2021/03/16 04:56:32;;;;;;;1.42;0.93;;;21.50;44.50;;;;;;5028796;28;20074;-64
2021/03/16 04:58:58;;;;;;;1.42;0.80;;;21.50;44.50;;;;;;5039872;28;20038;-64
2021/03/16 05:01:24;;;;;;;1.73;1.02;;;21.50;44.50;;;;;;5027152;28;20116;-65
2021/03/16 05:03:50;;;;;;;2.15;0.90;;;21.50;44.50;;;;;;5030274;28;20029;-64
2021/03/16 05:06:15;;;;;;;1.42;0.88;;;21.50;44.50;;;;;;5027030;28;20025;-61
2021/03/16 05:08:41;;;;;;;1.35;0.88;;;21.50;44.50;;;;;;5029659;28;20116;-63
2021/03/16 05:11:06;;;;;;;1.23;0.80;;;21.50;44.50;;;;;;5025442;28;20018;-63
2021/03/16 05:13:32;;;;;;;1.50;0.90;;;21.50;44.50;;;;;;5022577;28;20056;-61
2021/03/16 05:15:58;;;;;;;1.25;0.90;;;21.50;44.50;;;;;;5026170;28;20499;-62
2021/03/16 05:18:23;;;;;;;1.40;0.85;;;21.50;44.50;;;;;;5035638;28;20033;-62
2021/03/16 05:20:49;;;;;;;1.30;0.80;;;21.50;44.50;;;;;;5036027;28;20025;-64
2021/03/16 05:23:15;;;;;;;1.45;0.85;;;21.50;44.50;;;;;;5028457;28;20029;-63
2021/03/16 05:25:40;;;;;;;1.55;0.98;;;21.50;44.50;;;;;;5028018;28;20520;-63
2021/03/16 05:28:06;;;;;;;1.52;1.10;;;21.50;44.50;;;;;;5030304;28;20109;-64
2021/03/16 05:30:32;;;;;;;1.17;0.77;;;21.50;44.50;;;;;;5025781;28;20380;-62
2021/03/16 05:32:58;;;;;;;1.80;1.10;;;21.50;44.50;;;;;;5026092;28;20049;-64
2021/03/16 05:35:25;;;;;;;1.15;0.80;;;21.50;44.50;;;;;;5029832;28;20091;-63
2021/03/16 05:37:52;;;;;;;1.83;1.00;;;21.50;44.50;;;;;;5024333;28;20123;-63
2021/03/16 05:40:18;;;;;;;1.20;0.80;;;21.50;44.50;;;;;;5030058;28;20025;-64
2021/03/16 05:42:45;;;;;;;1.42;0.88;;;21.50;44.50;;;;;;5029126;28;20128;-64
2021/03/16 05:45:12;;;;;;;1.85;0.90;;;21.50;44.60;;;;;;5025642;28;20029;-63
2021/03/16 05:47:40;;;;;;;2.08;0.95;;;21.50;44.60;;;;;;5027056;28;20037;-64
2021/03/16 05:50:07;;;;;;;1.60;0.95;;;21.50;44.60;;;;;;5027203;28;20131;-62
2021/03/16 05:52:32;;;;;;;1.58;0.85;;;21.40;44.50;;;;;;5026353;28;20032;-64
2021/03/16 05:54:58;;;;;;;1.75;1.00;;;21.50;44.60;;;;;;5026952;28;20116;-65
2021/03/16 05:57:26;;;;;;;1.33;0.70;;;21.50;44.60;;;;;;5029133;28;20048;-63
2021/03/16 05:59:52;;;;;;;1.02;0.70;;;21.50;44.60;;;;;;5030637;28;20037;-66
2021/03/16 06:02:18;;;;;;;1.48;0.80;;;21.40;44.60;;;;;;5023639;28;20052;-63
2021/03/16 06:04:44;;;;;;;1.63;0.90;;;21.40;44.60;;;;;;5021491;28;20037;-62
2021/03/16 06:07:14;;;;;;;1.40;0.90;;;21.40;45.10;;;;;;5024909;28;20025;-63
2021/03/16 06:09:41;;;;;;;1.00;0.70;;;21.40;44.60;;;;;;5023877;28;20079;-62
2021/03/16 06:12:08;;;;;;;1.48;0.80;;;21.40;44.60;;;;;;5027877;28;20166;-62
2021/03/16 06:14:34;;;;;;;2.90;0.90;;;21.40;44.60;;;;;;5027544;28;20106;-63
2021/03/16 06:17:01;;;;;;;1.30;0.90;;;21.40;44.60;;;;;;5028658;28;20033;-63
2021/03/16 06:19:35;;;;;;;1.80;0.90;;;21.40;44.70;;;;;;5025410;28;20108;-64
2021/03/16 06:22:03;;;;;;;1.00;0.80;;;21.40;44.60;;;;;;5024614;28;20079;-62
2021/03/16 06:24:30;;;;;;;1.48;0.90;;;21.40;44.60;;;;;;5027718;28;20034;-65
2021/03/16 06:26:56;;;;;;;1.15;0.90;;;21.40;44.70;;;;;;5028496;28;20032;-62
2021/03/16 06:29:22;;;;;;;1.00;0.70;;;21.40;44.70;;;;;;5040753;28;20120;-62
2021/03/16 06:31:49;;;;;;;1.15;0.70;;;21.40;44.70;;;;;;5022741;28;20030;-62
2021/03/16 06:34:25;;;;;;;1.60;0.95;;;21.40;44.70;;;;;;5029117;28;20017;-63
2021/03/16 06:36:58;;;;;;;1.00;0.75;;;21.40;44.70;;;;;;5026979;28;20374;-64
2021/03/16 06:39:25;;;;;;;0.80;0.63;;;21.40;45.20;;;;;;5022890;28;20034;-62
2021/03/16 06:41:51;;;;;;;1.15;0.80;;;21.40;44.70;;;;;;5023476;28;20337;-70
2021/03/16 06:44:19;;;;;;;1.75;0.98;;;21.40;45.00;;;;;;5019759;28;20030;-69
2021/03/16 06:46:55;;;;;;;2.20;1.00;;;21.40;45.80;;;;;;5014830;28;20046;-70
2021/03/16 06:49:22;;;;;;;1.52;0.85;;;21.60;45.80;;;;;;5030441;28;20864;-69
2021/03/16 06:51:50;;;;;;;2.13;1.20;;;21.70;45.60;;;;;;5029002;28;20120;-71
2021/03/16 06:54:18;;;;;;;1.98;0.82;;;21.90;45.20;;;;;;5029398;28;20874;-70
2021/03/16 06:56:57;;;;;;;2.08;0.80;;;21.90;44.50;;;;;;5027016;28;20036;-70
2021/03/16 06:59:25;;;;;;;1.30;0.80;;;21.90;44.50;;;;;;5016897;28;20048;-71
2021/03/16 07:01:51;;;;;;;2.67;0.80;;;21.90;45.10;;;;;;5018843;28;20041;-72
2021/03/16 07:04:22;;;;;;;1.95;0.75;;;21.90;44.60;;;;;;5026761;28;20026;-72
2021/03/16 07:06:48;;;;;;;2.03;1.00;;;21.80;44.80;;;;;;5026904;28;20064;-71
2021/03/16 07:09:16;;;;;;;1.58;1.00;;;22.00;45.00;;;;;;5022637;28;20041;-72
2021/03/16 07:11:50;;;;;;;1.40;0.70;;;22.10;44.50;;;;;;5025164;28;20037;-69
2021/03/16 07:14:18;;;;;;;0.73;0.57;;;22.10;44.40;;;;;;5026057;28;20023;-71
2021/03/16 07:16:44;;;;;;;1.33;0.80;;;22.10;44.30;;;;;;5026157;28;20041;-71
2021/03/16 07:19:11;;;;;;;1.80;0.85;;;22.10;44.40;;;;;;5026583;28;20033;-70
2021/03/16 07:21:45;;;;;;;1.55;0.90;;;22.10;44.40;;;;;;5028511;28;20024;-69
2021/03/16 07:24:12;;;;;;;1.15;0.90;;;22.10;44.70;;;;;;5022953;28;20021;-69
2021/03/16 07:26:38;;;;;;;1.65;1.00;;;22.30;44.70;;;;;;5052547;28;20041;-71
2021/03/16 07:29:06;;;;;;;1.70;0.90;;;22.40;44.10;;;;;;5026940;28;20487;-68
2021/03/16 07:31:41;;;;;;;0.85;0.70;;;22.40;44.00;;;;;;5025043;28;20026;-70
2021/03/16 07:34:08;;;;;;;1.23;0.70;;;22.30;44.00;;;;;;5022140;28;20056;-72
2021/03/16 07:36:35;;;;;;;1.20;0.80;;;22.30;44.10;;;;;;5028724;28;20029;-64
2021/03/16 07:39:05;;;;;;;1.65;0.93;;;22.40;44.20;;;;;;5026899;28;20572;-71
2021/03/16 07:41:32;;;;;;;1.52;0.82;;;22.40;44.50;;;;;;5027462;28;20026;-72
2021/03/16 07:44:07;;;;;;;2.05;0.80;;;22.60;44.40;;;;;;5026622;28;20087;-72
2021/03/16 07:46:47;;;;;;;1.02;0.73;;;22.70;43.80;;;;;;5024631;28;20026;-72
2021/03/16 07:49:31;;;;;;;1.77;0.90;;;22.70;43.70;;;;;;5024462;28;20029;-66
2021/03/16 07:51:57;;;;;;;1.08;0.70;;;22.60;43.80;;;;;;5022008;28;20052;-69
2021/03/16 07:54:32;;;;;;;1.05;0.75;;;22.60;43.80;;;;;;5021638;28;20031;-66
2021/03/16 07:56:59;;;;;;;1.63;0.90;;;22.60;43.80;;;;;;5029249;28;20026;-70
2021/03/16 07:59:43;;;;;;;1.80;0.88;;;22.60;44.00;;;;;;5031524;28;20036;-69
2021/03/16 08:02:09;;;;;;;1.33;0.80;;;22.70;43.80;;;;;;5037989;28;20089;-70
2021/03/16 08:04:40;;;;;;;1.58;0.77;;;22.70;43.80;;;;;;5031349;28;20420;-67
2021/03/16 08:07:13;;;;;;;1.50;0.70;;;22.70;43.80;;;;;;5027913;28;20047;-69
2021/03/16 08:09:46;;;;;;;1.00;0.80;;;22.70;43.70;;;;;;5024865;28;20037;-69
2021/03/16 08:12:23;;;;;;;2.38;1.00;;;22.70;43.70;;;;;;5020958;28;20049;-68
2021/03/16 08:14:49;;;;;;;0.95;0.73;;;22.70;43.90;;;;;;5029189;28;20423;-69
2021/03/16 08:17:32;;;;;;;1.65;0.88;;;22.80;43.90;;;;;;5033624;28;20029;-69
2021/03/16 08:19:59;;;;;;;2.30;0.90;;;22.90;43.60;;;;;;5031463;28;20025;-68
2021/03/16 08:22:27;;;;;;;1.15;0.70;;;22.90;43.60;;;;;;5027119;28;20405;-68
2021/03/16 08:25:05;;;;;;;4.22;1.00;;;22.90;43.60;;;;;;5028837;28;20139;-68
2021/03/16 08:27:34;;;;;;;1.38;0.80;;;22.90;43.70;;;;;;5030688;28;20519;-67
2021/03/16 08:29:59;;;;;;;1.25;0.80;;;22.90;43.70;;;;;;5027685;28;20155;-67
2021/03/16 08:32:25;;;;;;;1.08;0.65;;;22.90;43.90;;;;;;5030403;28;20050;-68
2021/03/16 08:34:54;;;;;;;1.70;0.75;;;23.00;43.70;;;;;;5030289;28;20105;-68
2021/03/16 08:37:32;;;;;;;1.40;0.90;;;23.00;43.60;;;;;;5025029;28;20025;-64
2021/03/16 08:39:59;;;;;;;1.52;1.10;;;23.00;43.60;;;;;;5027158;28;20026;-67
2021/03/16 08:42:26;;;;;;;1.73;0.73;;;23.00;43.60;;;;;;5029753;28;20174;-68
2021/03/16 08:44:53;;;;;;;1.58;0.75;;;23.00;43.60;;;;;;5026850;28;20021;-69
2021/03/16 08:47:27;;;;;;;1.70;0.75;;;23.00;43.70;;;;;;5031055;28;20476;-67
2021/03/16 08:49:59;;;;;;;1.50;0.90;;;23.10;43.70;;;;;;5029171;28;20112;-69
2021/03/16 08:52:29;;;;;;;1.20;0.70;;;23.10;43.60;;;;;;5027286;28;20033;-71
2021/03/16 08:54:58;;;;;;;1.50;0.70;;;23.10;43.60;;;;;;5029623;28;20022;-69
2021/03/16 08:57:26;;;;;;;1.65;0.90;;;23.10;43.60;;;;;;5041065;28;20029;-69
2021/03/16 08:59:55;;;;;;;1.25;0.75;;;23.10;43.60;;;;;;5028570;28;20025;-69
2021/03/16 09:02:33;;;;;;;2.22;0.82;;;23.10;43.50;;;;;;5034413;28;20071;-68
2021/03/16 09:04:59;;;;;;;1.52;0.80;;;23.10;43.80;;;;;;5041160;28;20902;-69
2021/03/16 09:07:32;;;;;;;1.40;0.80;;;23.20;43.50;;;;;;5030699;28;20471;-71
2021/03/16 09:10:18;;;;;;;1.10;0.80;;;23.20;43.50;;;;;;5030165;28;20120;-69
2021/03/16 09:12:46;;;;;;;1.20;0.70;;;23.20;43.50;;;;;;5029557;28;20030;-68
2021/03/16 09:15:15;;;;;;;1.77;0.93;;;23.20;43.40;;;;;;5030578;28;20041;-68
2021/03/16 09:17:43;;;;;;;1.55;0.80;;;23.20;43.50;;;;;;5042602;28;20034;-68
2021/03/16 09:20:21;;;;;;;2.20;0.85;;;23.20;43.50;;;;;;5040833;28;20037;-66
2021/03/16 09:23:01;;;;;;;1.25;0.80;;;23.30;43.70;;;;;;5026176;28;20037;-68
2021/03/16 09:25:32;;;;;;;1.67;0.80;;;23.30;43.40;;;;;;5028559;28;20338;-68
2021/03/16 09:28:00;;;;;;;1.58;0.70;;;23.30;43.40;;;;;;5031955;28;20057;-68
2021/03/16 09:30:30;;;;;;;1.50;0.90;;;23.30;43.30;;;;;;5036584;28;20041;-69
2021/03/16 09:32:56;;;;;;;2.60;0.90;;;23.30;43.30;;;;;;5042452;28;20022;-69
2021/03/16 09:35:23;;;;;;;1.55;0.80;;;23.30;43.40;;;;;;5029647;28;20353;-67
2021/03/16 09:37:51;;;;;;;1.52;0.90;;;23.40;43.40;;;;;;5028838;28;20468;-70
2021/03/16 09:40:28;;;;;;;1.77;0.80;;;23.40;43.60;;;;;;5028759;28;20396;-69
2021/03/16 09:42:54;;;;;;;1.95;0.80;;;23.40;43.30;;;;;;5027952;28;20743;-66
2021/03/16 09:45:31;;;;;;;1.35;0.82;;;23.50;43.30;;;;;;5031258;28;20029;-66
2021/03/16 09:47:59;;;;;;;0.85;0.60;;;23.50;43.30;;;;;;5031172;28;20154;-69
2021/03/16 09:50:35;;;;;;;1.33;0.70;;;23.50;43.20;;;;;;5030715;28;20026;-67
2021/03/16 09:53:05;;;;;;;1.25;0.75;;;23.50;43.30;;;;;;5026419;28;20041;-68
2021/03/16 09:55:32;;;;;;;1.63;0.80;;;23.50;43.40;;;;;;5028472;28;20030;-69
2021/03/16 09:57:59;;;;;;;1.25;0.80;;;23.50;43.40;;;;;;5030863;28;20352;-76
2021/03/16 10:00:27;;;;;;;1.08;0.70;;;23.50;43.50;;;;;;5024101;28;20038;-68
2021/03/16 10:03:07;;;;;;;2.30;1.02;;;23.50;43.50;;;;;;5033037;28;20033;-68
2021/03/16 10:05:34;;;;;;;1.30;0.60;;;23.40;43.60;;;;;;5027441;28;20033;-64
2021/03/16 10:08:00;;;;;;;1.10;0.70;;;23.50;43.60;;;;;;5028189;28;20040;-67
2021/03/16 10:10:30;;;;;;;1.40;0.77;;;23.50;43.70;;;;;;5030578;28;20745;-68
2021/03/16 10:12:59;;;;;;;1.10;0.70;;;23.50;43.60;;;;;;5027767;28;20159;-69
2021/03/16 10:15:31;;;;;;;1.40;0.77;;;23.50;43.50;;;;;;5029659;28;20032;-66
2021/03/16 10:18:03;;;;;;;1.42;0.75;;;23.50;43.40;;;;;;5024523;28;20048;-65
2021/03/16 10:20:31;;;;;;;0.90;0.63;;;23.50;43.40;;;;;;5028384;28;20025;-69
2021/03/16 10:23:03;;;;;;;1.38;0.90;;;23.60;43.50;;;;;;5027940;28;20056;-69
2021/03/16 10:25:34;;;;;;;1.40;0.80;;;23.50;43.40;;;;;;5028194;28;20033;-66
2021/03/16 10:28:02;;;;;;;1.10;0.80;;;23.60;43.50;;;;;;5025566;28;20116;-68
2021/03/16 10:30:31;;;;;;;1.55;0.82;;;23.60;43.50;;;;;;5031910;28;20033;-68
2021/03/16 10:32:57;;;;;;;1.77;0.90;;;23.60;43.50;;;;;;5036232;28;20029;-64
2021/03/16 10:35:22;;;;;;;1.58;0.80;;;23.60;43.40;;;;;;5034077;28;20033;-68
2021/03/16 10:37:48;;;;;;;1.00;0.70;;;23.60;43.90;;;;;;5028541;28;20091;-68
2021/03/16 10:40:14;;;;;;;2.13;0.90;;;23.60;43.40;;;;;;5028074;28;20044;-70
2021/03/16 10:42:39;;;;;;;1.08;0.73;;;23.60;43.40;;;;;;5030246;28;20436;-68
2021/03/16 10:45:06;;;;;;;1.80;0.93;;;23.60;43.30;;;;;;5025443;28;20573;-65
2021/03/16 10:47:32;;;;;;;1.70;0.90;;;23.60;43.50;;;;;;5028868;28;20162;-69
2021/03/16 10:49:57;;;;;;;1.90;1.27;;;23.60;43.30;;;;;;5030366;28;20055;-68
2021/03/16 10:52:23;;;;;;;1.75;1.00;;;23.60;43.30;;;;;;5025074;28;20092;-68
2021/03/16 10:54:49;;;;;;;1.65;0.80;;;23.60;43.30;;;;;;5026179;28;20171;-64
2021/03/16 10:57:15;;;;;;;2.35;0.93;;;23.60;43.30;;;;;;5026968;28;20044;-65
2021/03/16 10:59:41;;;;;;;1.55;0.90;;;23.60;43.30;;;;;;5028758;28;20502;-64
2021/03/16 11:02:07;;;;;;;1.92;1.10;;;23.60;43.30;;;;;;5022335;28;20026;-65
2021/03/16 11:04:35;;;;;;;1.42;0.90;;;23.60;43.30;;;;;;5020331;28;20025;-68
2021/03/16 11:07:01;;;;;;;1.75;0.90;;;23.60;43.30;;;;;;5027427;28;20846;-66
2021/03/16 11:09:27;;;;;;;1.35;0.90;;;23.60;43.30;;;;;;5026090;28;20105;-68
2021/03/16 11:11:53;;;;;;;2.60;0.93;;;23.60;43.30;;;;;;5027937;28;20136;-67
2021/03/16 11:14:18;;;;;;;1.88;0.88;;;23.60;43.30;;;;;;5027487;28;20144;-62
2021/03/16 11:16:44;;;;;;;1.73;0.95;;;23.70;43.50;;;;;;5027363;28;20427;-64
2021/03/16 11:19:10;;;;;;;1.58;0.80;;;23.70;43.50;;;;;;5049009;28;20030;-62
2021/03/16 11:21:35;;;;;;;1.38;1.00;;;23.70;43.50;;;;;;5027532;28;20036;-63
2021/03/16 11:24:01;;;;;;;2.75;1.10;;;23.70;43.50;;;;;;5027064;28;20025;-62
2021/03/16 11:26:27;;;;;;;1.35;0.88;;;23.70;43.50;;;;;;5024406;28;20025;-62
2021/03/16 11:28:53;;;;;;;1.83;1.10;;;23.70;43.50;;;;;;5027073;28;20092;-62
2021/03/16 11:31:19;;;;;;;2.00;0.95;;;23.70;43.50;;;;;;5027643;28;20030;-65
2021/03/16 11:33:44;;;;;;;3.20;0.95;;;23.70;43.50;;;;;;5027106;28;20108;-65
2021/03/16 11:36:10;;;;;;;2.47;1.00;;;23.70;43.50;;;;;;5027977;28;20024;-61
2021/03/16 11:38:36;;;;;;;1.90;1.00;;;23.70;43.60;;;;;;5028410;28;20475;-62
2021/03/16 11:41:02;;;;;;;2.08;1.00;;;23.70;43.50;;;;;;5022851;28;20041;-61
2021/03/16 11:43:27;;;;;;;1.63;0.98;;;23.70;43.60;;;;;;5025852;28;20141;-63
2021/03/16 11:45:53;;;;;;;4.45;1.08;;;23.70;43.70;;;;;;5021954;28;20045;-63
2021/03/16 11:48:24;;;;;;;1.88;1.00;;;23.70;43.70;;;;;;5026788;28;20033;-63
2021/03/16 11:50:50;;;;;;;2.17;1.10;;;23.70;43.60;;;;;;5026268;28;20203;-63
2021/03/16 11:53:15;;;;;;;1.98;1.10;;;23.70;43.60;;;;;;5028050;28;20232;-62
2021/03/16 11:55:41;;;;;;;2.05;1.00;;;23.70;44.10;;;;;;5029610;28;20021;-66
2021/03/16 11:58:06;;;;;;;4.15;1.23;;;23.70;43.60;;;;;;5044726;28;20037;-65
2021/03/16 12:00:32;;;;;;;1.73;1.10;;;23.70;43.60;;;;;;5027587;28;20057;-64
2021/03/16 12:02:58;;;;;;;1.85;1.00;;;23.70;43.60;;;;;;5026114;28;20061;-63
2021/03/16 12:05:24;;;;;;;2.75;1.08;;;23.70;43.60;;;;;;5028170;28;20029;-63
2021/03/16 12:07:49;;;;;;;2.38;1.30;;;23.70;43.50;;;;;;5029766;28;20034;-63
2021/03/16 12:10:15;;;;;;;2.25;1.20;;;23.70;43.50;;;;;;5045338;28;20017;-65
2021/03/16 12:12:41;;;;;;;1.73;1.10;;;23.70;43.50;;;;;;5020628;28;20048;-64
2021/03/16 12:15:10;;;;;;;1.77;1.05;;;23.70;43.50;;;;;;5027365;28;20052;-62
2021/03/16 12:17:36;;;;;;;1.67;1.02;;;23.70;43.50;;;;;;5026057;28;20034;-65
2021/03/16 12:20:04;;;;;;;2.08;1.13;;;23.70;43.60;;;;;;5025742;28;20521;-65
2021/03/16 12:22:29;;;;;;;1.60;1.02;;;23.70;43.60;;;;;;5022385;28;20033;-65
2021/03/16 12:24:55;;;;;;;2.10;1.15;;;23.70;43.80;;;;;;5025073;28;20052;-65
2021/03/16 12:27:21;;;;;;;2.17;1.05;;;23.80;43.80;;;;;;5024922;28;20038;-65
2021/03/16 12:29:46;;;;;;;2.15;1.00;;;23.80;43.90;;;;;;5025453;28;20049;-64
2021/03/16 12:32:12;;;;;;;1.20;0.82;;;23.70;43.90;;;;;;5025308;28;20030;-64
2021/03/16 12:34:37;;;;;;;1.80;1.00;;;23.80;43.80;;;;;;5025448;28;20038;-64
2021/03/16 12:37:04;;;;;;;1.70;1.00;;;23.80;44.10;;;;;;5023402;28;20030;-61
2021/03/16 12:39:30;;;;;;;1.52;1.02;;;23.80;44.20;;;;;;5027834;28;20044;-62
2021/03/16 12:41:56;;;;;;;2.03;0.90;;;23.80;44.20;;;;;;5022020;28;20067;-60
2021/03/16 12:44:21;;;;;;;1.58;0.98;;;23.80;44.10;;;;;;5024713;28;20117;-61
2021/03/16 12:46:47;;;;;;;4.30;1.20;;;23.80;44.00;;;;;;5030716;28;20079;-65
2021/03/16 12:49:13;;;;;;;1.88;1.10;;;23.80;43.80;;;;;;5034853;28;20120;-64
2021/03/16 12:51:38;;;;;;;1.80;1.13;;;23.90;43.80;;;;;;5030359;28;20128;-65